sensor_id;sensor_type;location;lat;lon;timestamp;temperature;humidity
44121;DHT22;29783;52.504;13.478;2022-09-09T00:01:30;14.30;97.30
44121;DHT22;29783;52.504;13.478;2022-09-09T00:04:09;14.20;97.30
44121;DHT22;29783;52.504;13.478;2022-09-09T00:06:50;14.20;97.20
44121;DHT22;29783;52.504;13.478;2022-09-09T00:09:22;14.20;97.40
44121;DHT22;29783;52.504;13.478;2022-09-09T00:11:54;14.20;97.40
44121;DHT22;29783;52.504;13.478;2022-09-09T00:14:40;14.20;97.40
44121;DHT22;29783;52.504;13.478;2022-09-09T00:17:18;14.20;97.40
44121;DHT22;29783;52.504;13.478;2022-09-09T00:19:55;14.20;97.50
44121;DHT22;29783;52.504;13.478;2022-09-09T00:22:25;14.20;97.50
44121;DHT22;29783;52.504;13.478;2022-09-09T00:24:54;14.20;97.40
44121;DHT22;29783;52.504;13.478;2022-09-09T00:27:25;14.10;97.40
44121;DHT22;29783;52.504;13.478;2022-09-09T00:30:18;14.10;97.50
44121;DHT22;29783;52.504;13.478;2022-09-09T00:32:54;14.00;97.40
44121;DHT22;29783;52.504;13.478;2022-09-09T00:35:34;14.10;97.40
44121;DHT22;29783;52.504;13.478;2022-09-09T00:38:08;14.00;97.40
44121;DHT22;29783;52.504;13.478;2022-09-09T00:43:31;14.00;97.40
44121;DHT22;29783;52.504;13.478;2022-09-09T00:46:22;14.00;97.50
44121;DHT22;29783;52.504;13.478;2022-09-09T00:49:15;14.00;97.60
44121;DHT22;29783;52.504;13.478;2022-09-09T00:57:37;14.10;97.60
44121;DHT22;29783;52.504;13.478;2022-09-09T01:02:56;14.10;97.80
44121;DHT22;29783;52.504;13.478;2022-09-09T01:08:00;13.90;97.60
44121;DHT22;29783;52.504;13.478;2022-09-09T01:10:52;13.80;97.50
44121;DHT22;29783;52.504;13.478;2022-09-09T01:13:27;13.80;97.60
44121;DHT22;29783;52.504;13.478;2022-09-09T01:15:57;13.90;97.60
44121;DHT22;29783;52.504;13.478;2022-09-09T01:18:27;13.80;97.60
44121;DHT22;29783;52.504;13.478;2022-09-09T01:24:26;13.70;97.50
44121;DHT22;29783;52.504;13.478;2022-09-09T01:26:56;13.70;97.50
44121;DHT22;29783;52.504;13.478;2022-09-09T01:29:23;13.60;97.60
44121;DHT22;29783;52.504;13.478;2022-09-09T01:34:18;13.60;97.50
44121;DHT22;29783;52.504;13.478;2022-09-09T01:36:57;13.50;97.50
44121;DHT22;29783;52.504;13.478;2022-09-09T01:39:23;13.50;97.60
44121;DHT22;29783;52.504;13.478;2022-09-09T01:41:49;13.50;97.50
44121;DHT22;29783;52.504;13.478;2022-09-09T01:44:14;13.40;97.50
44121;DHT22;29783;52.504;13.478;2022-09-09T01:46:40;13.40;97.50
44121;DHT22;29783;52.504;13.478;2022-09-09T01:49:06;13.30;97.50
44121;DHT22;29783;52.504;13.478;2022-09-09T01:51:34;13.40;97.50
44121;DHT22;29783;52.504;13.478;2022-09-09T01:54:00;13.30;97.40
44121;DHT22;29783;52.504;13.478;2022-09-09T02:02:11;13.30;97.50
44121;DHT22;29783;52.504;13.478;2022-09-09T02:04:40;13.20;97.50
44121;DHT22;29783;52.504;13.478;2022-09-09T02:07:37;13.20;97.50
44121;DHT22;29783;52.504;13.478;2022-09-09T02:10:25;13.20;97.60
44121;DHT22;29783;52.504;13.478;2022-09-09T02:13:05;13.20;97.60
44121;DHT22;29783;52.504;13.478;2022-09-09T02:15:43;13.30;97.60
44121;DHT22;29783;52.504;13.478;2022-09-09T02:18:11;13.20;97.60
44121;DHT22;29783;52.504;13.478;2022-09-09T02:20:39;13.30;97.70
44121;DHT22;29783;52.504;13.478;2022-09-09T02:23:06;13.30;97.80
44121;DHT22;29783;52.504;13.478;2022-09-09T02:25:34;13.30;97.70
44121;DHT22;29783;52.504;13.478;2022-09-09T02:28:01;13.40;97.90
44121;DHT22;29783;52.504;13.478;2022-09-09T02:30:29;13.30;97.70
44121;DHT22;29783;52.504;13.478;2022-09-09T02:32:58;13.20;97.70
44121;DHT22;29783;52.504;13.478;2022-09-09T02:35:29;13.20;97.70
44121;DHT22;29783;52.504;13.478;2022-09-09T02:38:00;13.30;97.80
44121;DHT22;29783;52.504;13.478;2022-09-09T02:40:27;13.20;97.70
44121;DHT22;29783;52.504;13.478;2022-09-09T02:42:54;13.20;97.70
44121;DHT22;29783;52.504;13.478;2022-09-09T02:45:24;13.20;97.70
44121;DHT22;29783;52.504;13.478;2022-09-09T02:51:10;13.20;97.80
44121;DHT22;29783;52.504;13.478;2022-09-09T02:53:59;13.20;97.80
44121;DHT22;29783;52.504;13.478;2022-09-09T02:56:31;13.20;97.80
44121;DHT22;29783;52.504;13.478;2022-09-09T02:58:59;13.10;97.70
44121;DHT22;29783;52.504;13.478;2022-09-09T03:01:24;13.10;97.80
44121;DHT22;29783;52.504;13.478;2022-09-09T03:03:50;13.10;97.70
44121;DHT22;29783;52.504;13.478;2022-09-09T03:06:15;13.10;97.70
44121;DHT22;29783;52.504;13.478;2022-09-09T03:08:41;13.00;97.60
44121;DHT22;29783;52.504;13.478;2022-09-09T03:11:07;12.90;97.60
44121;DHT22;29783;52.504;13.478;2022-09-09T03:13:34;12.90;97.70
44121;DHT22;29783;52.504;13.478;2022-09-09T03:16:00;12.90;97.70
44121;DHT22;29783;52.504;13.478;2022-09-09T03:18:25;12.90;97.70
44121;DHT22;29783;52.504;13.478;2022-09-09T03:20:51;13.00;97.70
44121;DHT22;29783;52.504;13.478;2022-09-09T03:23:17;13.00;97.70
44121;DHT22;29783;52.504;13.478;2022-09-09T03:25:51;12.90;97.70
44121;DHT22;29783;52.504;13.478;2022-09-09T03:28:17;13.00;97.80
44121;DHT22;29783;52.504;13.478;2022-09-09T03:30:43;12.90;97.70
44121;DHT22;29783;52.504;13.478;2022-09-09T03:33:09;12.90;97.70
44121;DHT22;29783;52.504;13.478;2022-09-09T03:35:35;12.90;97.80
44121;DHT22;29783;52.504;13.478;2022-09-09T03:38:00;12.90;97.80
44121;DHT22;29783;52.504;13.478;2022-09-09T03:40:26;13.10;98.00
44121;DHT22;29783;52.504;13.478;2022-09-09T03:42:52;13.00;97.90
44121;DHT22;29783;52.504;13.478;2022-09-09T03:45:17;13.10;97.90
44121;DHT22;29783;52.504;13.478;2022-09-09T03:47:43;12.90;97.80
44121;DHT22;29783;52.504;13.478;2022-09-09T03:50:09;12.90;97.80
44121;DHT22;29783;52.504;13.478;2022-09-09T03:52:37;12.90;97.80
44121;DHT22;29783;52.504;13.478;2022-09-09T03:55:04;12.80;97.80
44121;DHT22;29783;52.504;13.478;2022-09-09T03:57:29;12.80;97.80
44121;DHT22;29783;52.504;13.478;2022-09-09T03:59:55;12.90;97.90
44121;DHT22;29783;52.504;13.478;2022-09-09T04:02:21;12.90;97.90
44121;DHT22;29783;52.504;13.478;2022-09-09T04:04:47;12.80;97.90
44121;DHT22;29783;52.504;13.478;2022-09-09T04:07:12;12.80;97.80
44121;DHT22;29783;52.504;13.478;2022-09-09T04:09:38;12.70;97.80
44121;DHT22;29783;52.504;13.478;2022-09-09T04:12:04;12.70;97.90
44121;DHT22;29783;52.504;13.478;2022-09-09T04:14:30;12.70;97.80
44121;DHT22;29783;52.504;13.478;2022-09-09T04:16:55;12.70;97.80
44121;DHT22;29783;52.504;13.478;2022-09-09T04:19:23;12.70;97.80
44121;DHT22;29783;52.504;13.478;2022-09-09T04:21:49;12.70;97.80
44121;DHT22;29783;52.504;13.478;2022-09-09T04:24:15;12.70;97.80
44121;DHT22;29783;52.504;13.478;2022-09-09T04:26:41;12.70;97.80
44121;DHT22;29783;52.504;13.478;2022-09-09T04:29:07;12.60;97.80
44121;DHT22;29783;52.504;13.478;2022-09-09T04:31:33;12.70;97.90
44121;DHT22;29783;52.504;13.478;2022-09-09T04:33:58;12.70;97.90
44121;DHT22;29783;52.504;13.478;2022-09-09T04:36:27;12.70;97.90
44121;DHT22;29783;52.504;13.478;2022-09-09T04:38:53;12.70;97.90
44121;DHT22;29783;52.504;13.478;2022-09-09T04:41:18;12.70;97.80
44121;DHT22;29783;52.504;13.478;2022-09-09T04:43:44;12.70;97.90
44121;DHT22;29783;52.504;13.478;2022-09-09T04:46:10;12.70;97.90
44121;DHT22;29783;52.504;13.478;2022-09-09T04:48:36;12.80;98.00
44121;DHT22;29783;52.504;13.478;2022-09-09T04:51:06;12.80;98.00
44121;DHT22;29783;52.504;13.478;2022-09-09T04:53:32;12.80;98.00
44121;DHT22;29783;52.504;13.478;2022-09-09T04:56:06;12.80;98.00
44121;DHT22;29783;52.504;13.478;2022-09-09T04:58:33;12.80;98.00
44121;DHT22;29783;52.504;13.478;2022-09-09T05:01:08;12.80;98.00
44121;DHT22;29783;52.504;13.478;2022-09-09T05:03:34;13.00;98.20
44121;DHT22;29783;52.504;13.478;2022-09-09T05:06:11;13.00;98.20
44121;DHT22;29783;52.504;13.478;2022-09-09T05:08:38;13.10;98.20
44121;DHT22;29783;52.504;13.478;2022-09-09T05:11:16;13.20;98.20
44121;DHT22;29783;52.504;13.478;2022-09-09T05:13:42;13.20;98.30
44121;DHT22;29783;52.504;13.478;2022-09-09T05:16:07;13.30;98.30
44121;DHT22;29783;52.504;13.478;2022-09-09T05:18:36;13.30;98.30
44121;DHT22;29783;52.504;13.478;2022-09-09T05:21:02;13.40;98.30
44121;DHT22;29783;52.504;13.478;2022-09-09T05:23:27;13.40;98.30
44121;DHT22;29783;52.504;13.478;2022-09-09T05:26:00;13.50;98.30
44121;DHT22;29783;52.504;13.478;2022-09-09T05:28:26;13.50;98.40
44121;DHT22;29783;52.504;13.478;2022-09-09T05:30:59;13.50;98.30
44121;DHT22;29783;52.504;13.478;2022-09-09T05:33:26;13.60;98.30
44121;DHT22;29783;52.504;13.478;2022-09-09T05:36:03;13.60;98.40
44121;DHT22;29783;52.504;13.478;2022-09-09T05:38:29;13.70;98.40
44121;DHT22;29783;52.504;13.478;2022-09-09T05:40:55;13.70;98.40
44121;DHT22;29783;52.504;13.478;2022-09-09T05:43:25;13.70;98.30
44121;DHT22;29783;52.504;13.478;2022-09-09T05:46:05;13.70;98.40
44121;DHT22;29783;52.504;13.478;2022-09-09T05:48:32;13.70;98.40
44121;DHT22;29783;52.504;13.478;2022-09-09T05:50:59;13.80;98.40
44121;DHT22;29783;52.504;13.478;2022-09-09T05:53:26;13.80;98.40
44121;DHT22;29783;52.504;13.478;2022-09-09T05:56:03;13.90;98.40
44121;DHT22;29783;52.504;13.478;2022-09-09T05:58:33;14.00;98.50
44121;DHT22;29783;52.504;13.478;2022-09-09T06:03:38;14.10;98.50
44121;DHT22;29783;52.504;13.478;2022-09-09T06:06:07;14.20;98.50
44121;DHT22;29783;52.504;13.478;2022-09-09T06:08:34;14.20;98.50
44121;DHT22;29783;52.504;13.478;2022-09-09T06:11:11;14.20;98.50
44121;DHT22;29783;52.504;13.478;2022-09-09T06:13:37;14.30;98.50
44121;DHT22;29783;52.504;13.478;2022-09-09T06:16:05;14.30;98.50
44121;DHT22;29783;52.504;13.478;2022-09-09T06:18:32;14.40;98.50
44121;DHT22;29783;52.504;13.478;2022-09-09T06:21:01;14.40;98.50
44121;DHT22;29783;52.504;13.478;2022-09-09T06:23:30;14.40;98.50
44121;DHT22;29783;52.504;13.478;2022-09-09T06:26:07;14.40;98.40
44121;DHT22;29783;52.504;13.478;2022-09-09T06:28:35;14.50;98.30
44121;DHT22;29783;52.504;13.478;2022-09-09T06:31:03;14.60;98.40
44121;DHT22;29783;52.504;13.478;2022-09-09T06:33:37;14.60;98.30
44121;DHT22;29783;52.504;13.478;2022-09-09T06:36:05;14.60;98.30
44121;DHT22;29783;52.504;13.478;2022-09-09T06:38:30;14.80;98.40
44121;DHT22;29783;52.504;13.478;2022-09-09T06:40:58;14.80;98.30
44121;DHT22;29783;52.504;13.478;2022-09-09T06:43:27;14.80;98.20
44121;DHT22;29783;52.504;13.478;2022-09-09T06:48:22;14.90;97.90
44121;DHT22;29783;52.504;13.478;2022-09-09T06:50:48;15.10;97.90
44121;DHT22;29783;52.504;13.478;2022-09-09T06:53:17;15.10;97.80
44121;DHT22;29783;52.504;13.478;2022-09-09T06:55:45;15.20;97.70
44121;DHT22;29783;52.504;13.478;2022-09-09T06:58:10;15.30;97.60
44121;DHT22;29783;52.504;13.478;2022-09-09T07:00:36;15.50;97.90
44121;DHT22;29783;52.504;13.478;2022-09-09T07:03:05;15.50;97.70
44121;DHT22;29783;52.504;13.478;2022-09-09T07:05:31;15.70;97.80
44121;DHT22;29783;52.504;13.478;2022-09-09T07:07:57;15.70;97.70
44121;DHT22;29783;52.504;13.478;2022-09-09T07:10:22;15.80;97.70
44121;DHT22;29783;52.504;13.478;2022-09-09T07:12:51;15.80;97.00
44121;DHT22;29783;52.504;13.478;2022-09-09T07:15:18;15.80;96.30
44121;DHT22;29783;52.504;13.478;2022-09-09T07:17:44;16.10;97.00
44121;DHT22;29783;52.504;13.478;2022-09-09T07:20:10;16.20;97.00
44121;DHT22;29783;52.504;13.478;2022-09-09T07:22:36;16.20;96.50
44121;DHT22;29783;52.504;13.478;2022-09-09T07:25:02;16.20;95.30
44121;DHT22;29783;52.504;13.478;2022-09-09T07:27:28;16.30;95.60
44121;DHT22;29783;52.504;13.478;2022-09-09T07:29:54;16.60;95.80
44121;DHT22;29783;52.504;13.478;2022-09-09T07:32:19;16.60;94.90
44121;DHT22;29783;52.504;13.478;2022-09-09T07:34:45;16.70;93.20
44121;DHT22;29783;52.504;13.478;2022-09-09T07:37:12;16.70;91.50
44121;DHT22;29783;52.504;13.478;2022-09-09T07:39:39;16.90;89.40
44121;DHT22;29783;52.504;13.478;2022-09-09T07:42:05;17.20;89.80
44121;DHT22;29783;52.504;13.478;2022-09-09T07:44:31;17.40;88.50
44121;DHT22;29783;52.504;13.478;2022-09-09T07:47:00;17.70;87.30
44121;DHT22;29783;52.504;13.478;2022-09-09T07:49:26;17.80;85.40
44121;DHT22;29783;52.504;13.478;2022-09-09T07:51:51;18.00;84.50
44121;DHT22;29783;52.504;13.478;2022-09-09T07:54:19;18.20;83.30
44121;DHT22;29783;52.504;13.478;2022-09-09T07:56:46;18.30;82.00
44121;DHT22;29783;52.504;13.478;2022-09-09T07:59:12;18.50;80.60
44121;DHT22;29783;52.504;13.478;2022-09-09T08:01:43;18.70;80.50
44121;DHT22;29783;52.504;13.478;2022-09-09T08:04:11;18.70;79.30
44121;DHT22;29783;52.504;13.478;2022-09-09T08:06:43;18.80;79.60
44121;DHT22;29783;52.504;13.478;2022-09-09T08:09:10;18.80;78.30
44121;DHT22;29783;52.504;13.478;2022-09-09T08:11:36;18.90;78.30
44121;DHT22;29783;52.504;13.478;2022-09-09T08:14:02;19.00;79.40
44121;DHT22;29783;52.504;13.478;2022-09-09T08:16:31;19.10;78.70
44121;DHT22;29783;52.504;13.478;2022-09-09T08:18:57;19.10;76.60
44121;DHT22;29783;52.504;13.478;2022-09-09T08:21:26;19.10;77.60
44121;DHT22;29783;52.504;13.478;2022-09-09T08:23:56;19.00;77.70
44121;DHT22;29783;52.504;13.478;2022-09-09T08:26:24;18.90;77.90
44121;DHT22;29783;52.504;13.478;2022-09-09T08:28:51;18.70;79.00
44121;DHT22;29783;52.504;13.478;2022-09-09T08:31:31;18.80;78.60
44121;DHT22;29783;52.504;13.478;2022-09-09T08:33:58;18.90;78.60
44121;DHT22;29783;52.504;13.478;2022-09-09T08:36:33;19.00;78.30
44121;DHT22;29783;52.504;13.478;2022-09-09T08:38:59;19.10;78.30
44121;DHT22;29783;52.504;13.478;2022-09-09T08:44:28;19.20;77.60
44121;DHT22;29783;52.504;13.478;2022-09-09T08:52:47;19.20;77.90
44121;DHT22;29783;52.504;13.478;2022-09-09T08:58:20;19.60;77.20
44121;DHT22;29783;52.504;13.478;2022-09-09T09:03:52;19.80;75.20
44121;DHT22;29783;52.504;13.478;2022-09-09T09:11:49;20.30;73.70
44121;DHT22;29783;52.504;13.478;2022-09-09T09:14:22;20.80;72.40
44121;DHT22;29783;52.504;13.478;2022-09-09T09:19:26;21.20;70.10
44121;DHT22;29783;52.504;13.478;2022-09-09T09:22:14;21.50;69.10
44121;DHT22;29783;52.504;13.478;2022-09-09T09:27:16;21.80;67.90
44121;DHT22;29783;52.504;13.478;2022-09-09T09:29:44;21.90;68.00
44121;DHT22;29783;52.504;13.478;2022-09-09T09:32:17;22.10;68.00
44121;DHT22;29783;52.504;13.478;2022-09-09T09:34:51;22.40;67.40
44121;DHT22;29783;52.504;13.478;2022-09-09T09:37:27;22.30;66.90
44121;DHT22;29783;52.504;13.478;2022-09-09T09:39:54;22.20;66.40
44121;DHT22;29783;52.504;13.478;2022-09-09T09:42:20;22.00;67.50
44121;DHT22;29783;52.504;13.478;2022-09-09T09:44:46;21.60;67.60
44121;DHT22;29783;52.504;13.478;2022-09-09T09:47:19;21.50;68.60
44121;DHT22;29783;52.504;13.478;2022-09-09T09:49:55;21.40;68.90
44121;DHT22;29783;52.504;13.478;2022-09-09T09:52:31;21.40;68.40
44121;DHT22;29783;52.504;13.478;2022-09-09T09:54:58;21.40;68.40
44121;DHT22;29783;52.504;13.478;2022-09-09T09:57:29;21.50;68.60
44121;DHT22;29783;52.504;13.478;2022-09-09T10:00:16;21.50;68.00
44121;DHT22;29783;52.504;13.478;2022-09-09T10:02:47;21.50;67.70
44121;DHT22;29783;52.504;13.478;2022-09-09T10:05:30;21.50;66.70
44121;DHT22;29783;52.504;13.478;2022-09-09T10:08:04;21.50;66.60
44121;DHT22;29783;52.504;13.478;2022-09-09T10:16:25;21.80;66.00
44121;DHT22;29783;52.504;13.478;2022-09-09T10:29:41;22.20;64.60
44121;DHT22;29783;52.504;13.478;2022-09-09T10:34:55;22.20;64.10
44121;DHT22;29783;52.504;13.478;2022-09-09T10:40:39;22.20;64.70
44121;DHT22;29783;52.504;13.478;2022-09-09T10:43:27;22.30;64.60
44121;DHT22;29783;52.504;13.478;2022-09-09T10:46:30;22.60;63.20
44121;DHT22;29783;52.504;13.478;2022-09-09T10:55:09;22.50;63.40
44121;DHT22;29783;52.504;13.478;2022-09-09T10:57:47;22.50;63.70
44121;DHT22;29783;52.504;13.478;2022-09-09T11:02:41;22.70;62.90
44121;DHT22;29783;52.504;13.478;2022-09-09T11:05:41;22.80;63.60
44121;DHT22;29783;52.504;13.478;2022-09-09T11:08:23;22.70;63.90
44121;DHT22;29783;52.504;13.478;2022-09-09T11:14:05;22.20;65.60
44121;DHT22;29783;52.504;13.478;2022-09-09T11:16:47;22.30;65.30
44121;DHT22;29783;52.504;13.478;2022-09-09T11:24:41;23.20;62.00
44121;DHT22;29783;52.504;13.478;2022-09-09T11:27:31;23.40;61.20
44121;DHT22;29783;52.504;13.478;2022-09-09T11:30:16;23.70;60.30
44121;DHT22;29783;52.504;13.478;2022-09-09T11:33:11;24.00;58.10
44121;DHT22;29783;52.504;13.478;2022-09-09T11:38:47;24.20;57.10
44121;DHT22;29783;52.504;13.478;2022-09-09T11:41:14;24.40;55.60
44121;DHT22;29783;52.504;13.478;2022-09-09T11:43:51;24.60;56.10
44121;DHT22;29783;52.504;13.478;2022-09-09T11:46:52;24.80;56.10
44121;DHT22;29783;52.504;13.478;2022-09-09T11:51:52;25.30;54.70
44121;DHT22;29783;52.504;13.478;2022-09-09T11:56:54;25.60;54.20
44121;DHT22;29783;52.504;13.478;2022-09-09T11:59:23;25.40;54.10
44121;DHT22;29783;52.504;13.478;2022-09-09T12:02:22;25.30;54.20
44121;DHT22;29783;52.504;13.478;2022-09-09T12:05:09;25.00;54.80
44121;DHT22;29783;52.504;13.478;2022-09-09T12:07:52;24.60;57.00
44121;DHT22;29783;52.504;13.478;2022-09-09T12:10:30;24.50;57.10
44121;DHT22;29783;52.504;13.478;2022-09-09T12:13:20;24.40;57.10
44121;DHT22;29783;52.504;13.478;2022-09-09T12:15:57;24.30;57.10
44121;DHT22;29783;52.504;13.478;2022-09-09T12:18:38;24.60;57.00
44121;DHT22;29783;52.504;13.478;2022-09-09T12:21:33;25.20;56.00
44121;DHT22;29783;52.504;13.478;2022-09-09T12:24:09;26.50;52.10
44121;DHT22;29783;52.504;13.478;2022-09-09T12:26:47;27.40;48.90
44121;DHT22;29783;52.504;13.478;2022-09-09T12:32:45;28.30;46.30
44121;DHT22;29783;52.504;13.478;2022-09-09T12:37:52;28.40;44.00
44121;DHT22;29783;52.504;13.478;2022-09-09T12:40:31;27.20;47.30
44121;DHT22;29783;52.504;13.478;2022-09-09T12:42:58;26.90;48.90
44121;DHT22;29783;52.504;13.478;2022-09-09T12:45:29;26.70;48.90
44121;DHT22;29783;52.504;13.478;2022-09-09T12:48:03;26.00;50.30
44121;DHT22;29783;52.504;13.478;2022-09-09T12:50:33;25.70;51.20
44121;DHT22;29783;52.504;13.478;2022-09-09T12:53:07;25.70;51.00
44121;DHT22;29783;52.504;13.478;2022-09-09T12:55:37;25.40;51.90
44121;DHT22;29783;52.504;13.478;2022-09-09T12:58:05;25.30;52.20
44121;DHT22;29783;52.504;13.478;2022-09-09T13:00:32;25.10;53.80
44121;DHT22;29783;52.504;13.478;2022-09-09T13:03:00;25.20;52.70
44121;DHT22;29783;52.504;13.478;2022-09-09T13:05:35;25.20;52.40
44121;DHT22;29783;52.504;13.478;2022-09-09T13:08:12;25.40;51.80
44121;DHT22;29783;52.504;13.478;2022-09-09T13:10:41;25.10;52.10
44121;DHT22;29783;52.504;13.478;2022-09-09T13:13:19;25.00;51.70
44121;DHT22;29783;52.504;13.478;2022-09-09T13:15:54;24.80;51.70
44121;DHT22;29783;52.504;13.478;2022-09-09T13:18:24;24.90;52.00
44121;DHT22;29783;52.504;13.478;2022-09-09T13:20:51;24.90;51.70
44121;DHT22;29783;52.504;13.478;2022-09-09T13:23:19;25.20;51.10
44121;DHT22;29783;52.504;13.478;2022-09-09T13:25:57;25.20;51.30
44121;DHT22;29783;52.504;13.478;2022-09-09T13:28:25;25.40;50.80
44121;DHT22;29783;52.504;13.478;2022-09-09T13:31:19;25.60;49.00
44121;DHT22;29783;52.504;13.478;2022-09-09T13:33:45;26.00;48.30
44121;DHT22;29783;52.504;13.478;2022-09-09T13:36:11;26.50;48.10
44121;DHT22;29783;52.504;13.478;2022-09-09T13:38:52;27.00;46.80
44121;DHT22;29783;52.504;13.478;2022-09-09T13:41:24;27.00;46.10
44121;DHT22;29783;52.504;13.478;2022-09-09T13:43:51;26.70;46.00
44121;DHT22;29783;52.504;13.478;2022-09-09T13:46:36;26.60;46.50
44121;DHT22;29783;52.504;13.478;2022-09-09T13:49:22;26.80;46.70
44121;DHT22;29783;52.504;13.478;2022-09-09T13:51:50;26.20;48.00
44121;DHT22;29783;52.504;13.478;2022-09-09T13:54:19;27.80;45.10
44121;DHT22;29783;52.504;13.478;2022-09-09T13:56:45;29.70;41.20
44121;DHT22;29783;52.504;13.478;2022-09-09T13:59:16;31.20;38.40
44121;DHT22;29783;52.504;13.478;2022-09-09T14:01:43;31.40;37.80
44121;DHT22;29783;52.504;13.478;2022-09-09T14:04:09;29.70;40.10
44121;DHT22;29783;52.504;13.478;2022-09-09T14:06:36;28.70;41.80
44121;DHT22;29783;52.504;13.478;2022-09-09T14:09:05;28.30;43.30
44121;DHT22;29783;52.504;13.478;2022-09-09T14:11:31;28.10;43.40
44121;DHT22;29783;52.504;13.478;2022-09-09T14:13:57;27.10;46.20
44121;DHT22;29783;52.504;13.478;2022-09-09T14:16:22;26.60;47.80
44121;DHT22;29783;52.504;13.478;2022-09-09T14:18:48;26.10;48.90
44121;DHT22;29783;52.504;13.478;2022-09-09T14:21:14;26.10;48.40
44121;DHT22;29783;52.504;13.478;2022-09-09T14:23:41;26.00;49.00
44121;DHT22;29783;52.504;13.478;2022-09-09T14:26:07;26.20;49.60
44121;DHT22;29783;52.504;13.478;2022-09-09T14:28:33;25.90;50.80
44121;DHT22;29783;52.504;13.478;2022-09-09T14:31:00;25.80;51.70
44121;DHT22;29783;52.504;13.478;2022-09-09T14:33:26;25.80;52.30
44121;DHT22;29783;52.504;13.478;2022-09-09T14:35:58;26.20;51.00
44121;DHT22;29783;52.504;13.478;2022-09-09T14:38:28;27.50;48.70
44121;DHT22;29783;52.504;13.478;2022-09-09T14:40:53;28.30;46.60
44121;DHT22;29783;52.504;13.478;2022-09-09T14:43:19;28.00;47.10
44121;DHT22;29783;52.504;13.478;2022-09-09T14:45:45;27.70;48.30
44121;DHT22;29783;52.504;13.478;2022-09-09T14:48:11;29.10;46.10
44121;DHT22;29783;52.504;13.478;2022-09-09T14:50:36;30.30;40.70
44121;DHT22;29783;52.504;13.478;2022-09-09T14:53:05;31.30;39.60
44121;DHT22;29783;52.504;13.478;2022-09-09T14:55:31;30.90;40.20
44121;DHT22;29783;52.504;13.478;2022-09-09T14:57:56;29.90;41.70
44121;DHT22;29783;52.504;13.478;2022-09-09T15:00:22;28.90;43.30
44121;DHT22;29783;52.504;13.478;2022-09-09T15:02:48;27.60;45.50
44121;DHT22;29783;52.504;13.478;2022-09-09T15:05:17;26.80;47.40
44121;DHT22;29783;52.504;13.478;2022-09-09T15:07:42;26.40;48.50
44121;DHT22;29783;52.504;13.478;2022-09-09T15:10:08;26.00;49.30
44121;DHT22;29783;52.504;13.478;2022-09-09T15:12:34;25.60;50.30
44121;DHT22;29783;52.504;13.478;2022-09-09T15:15:00;24.90;52.30
44121;DHT22;29783;52.504;13.478;2022-09-09T15:17:26;24.60;53.10
44121;DHT22;29783;52.504;13.478;2022-09-09T15:19:52;24.70;53.20
44121;DHT22;29783;52.504;13.478;2022-09-09T15:22:18;25.20;51.50
44121;DHT22;29783;52.504;13.478;2022-09-09T15:24:44;26.90;47.70
44121;DHT22;29783;52.504;13.478;2022-09-09T15:27:10;28.80;43.40
44121;DHT22;29783;52.504;13.478;2022-09-09T15:29:35;30.10;40.10
44121;DHT22;29783;52.504;13.478;2022-09-09T15:32:01;31.30;37.80
44121;DHT22;29783;52.504;13.478;2022-09-09T15:34:26;32.10;36.70
44121;DHT22;29783;52.504;13.478;2022-09-09T15:36:52;32.20;37.30
44121;DHT22;29783;52.504;13.478;2022-09-09T15:39:18;31.80;36.60
44121;DHT22;29783;52.504;13.478;2022-09-09T15:41:45;30.70;38.10
44121;DHT22;29783;52.504;13.478;2022-09-09T15:44:11;30.20;38.40
44121;DHT22;29783;52.504;13.478;2022-09-09T15:46:46;29.50;39.90
44121;DHT22;29783;52.504;13.478;2022-09-09T15:49:23;29.60;37.80
44121;DHT22;29783;52.504;13.478;2022-09-09T15:51:56;29.40;37.50
44121;DHT22;29783;52.504;13.478;2022-09-09T15:54:24;29.60;39.20
44121;DHT22;29783;52.504;13.478;2022-09-09T15:56:55;29.70;39.90
44121;DHT22;29783;52.504;13.478;2022-09-09T15:59:22;30.00;39.10
44121;DHT22;29783;52.504;13.478;2022-09-09T16:01:48;30.20;38.50
44121;DHT22;29783;52.504;13.478;2022-09-09T16:04:17;30.30;37.90
44121;DHT22;29783;52.504;13.478;2022-09-09T16:06:52;30.40;36.50
44121;DHT22;29783;52.504;13.478;2022-09-09T16:09:18;29.80;38.60
44121;DHT22;29783;52.504;13.478;2022-09-09T16:11:44;28.90;40.90
44121;DHT22;29783;52.504;13.478;2022-09-09T16:14:09;27.90;41.80
44121;DHT22;29783;52.504;13.478;2022-09-09T16:16:36;27.20;43.20
44121;DHT22;29783;52.504;13.478;2022-09-09T16:19:10;26.70;45.00
44121;DHT22;29783;52.504;13.478;2022-09-09T16:21:39;26.30;45.00
44121;DHT22;29783;52.504;13.478;2022-09-09T16:24:06;26.00;46.10
44121;DHT22;29783;52.504;13.478;2022-09-09T16:26:34;25.40;47.30
44121;DHT22;29783;52.504;13.478;2022-09-09T16:29:00;25.10;47.90
44121;DHT22;29783;52.504;13.478;2022-09-09T16:31:27;24.70;48.50
44121;DHT22;29783;52.504;13.478;2022-09-09T16:33:53;24.60;49.10
44121;DHT22;29783;52.504;13.478;2022-09-09T16:36:25;24.50;49.60
44121;DHT22;29783;52.504;13.478;2022-09-09T16:38:55;24.20;50.80
44121;DHT22;29783;52.504;13.478;2022-09-09T16:41:21;23.90;52.40
44121;DHT22;29783;52.504;13.478;2022-09-09T16:43:47;23.70;53.90
44121;DHT22;29783;52.504;13.478;2022-09-09T16:46:14;23.50;54.40
44121;DHT22;29783;52.504;13.478;2022-09-09T16:48:42;23.30;55.70
44121;DHT22;29783;52.504;13.478;2022-09-09T16:51:15;23.00;55.70
44121;DHT22;29783;52.504;13.478;2022-09-09T16:53:42;22.80;57.50
44121;DHT22;29783;52.504;13.478;2022-09-09T16:56:13;22.70;58.90
44121;DHT22;29783;52.504;13.478;2022-09-09T16:58:38;22.60;60.30
44121;DHT22;29783;52.504;13.478;2022-09-09T17:01:04;22.40;61.30
44121;DHT22;29783;52.504;13.478;2022-09-09T17:03:31;22.20;62.20
44121;DHT22;29783;52.504;13.478;2022-09-09T17:05:58;22.10;63.70
44121;DHT22;29783;52.504;13.478;2022-09-09T17:08:28;21.80;65.10
44121;DHT22;29783;52.504;13.478;2022-09-09T17:10:54;21.70;65.60
44121;DHT22;29783;52.504;13.478;2022-09-09T17:13:19;21.50;67.00
44121;DHT22;29783;52.504;13.478;2022-09-09T17:15:45;21.30;67.50
44121;DHT22;29783;52.504;13.478;2022-09-09T17:18:12;21.20;68.20
44121;DHT22;29783;52.504;13.478;2022-09-09T17:20:39;21.00;68.40
44121;DHT22;29783;52.504;13.478;2022-09-09T17:23:06;20.80;68.60
44121;DHT22;29783;52.504;13.478;2022-09-09T17:25:32;20.60;69.10
44121;DHT22;29783;52.504;13.478;2022-09-09T17:27:58;20.40;68.60